Linhe, China
Current Conditions -  °F | °C
As of 9:00 PM on Saturday 25 Oct 2014 (Local Time) from ZBHH Reporting Station
Clear Clear  
Wind Chill: 57°   Ceiling: Unl
Heat Index: 57°   Visibility: 6mi
Dew Point: 28°   Wind: 11mph
Humidity: 33%   Direction: 20°NNE
Pressure: 30.09"   Gusts: NA
Location:  40.83°N, 107.5°E
Report Text: ZBHH 251300Z 02005MPS 340V050 CAVOK 14/M02 Q1019 NOSIG
Loading
Personal Weather Stations






























Interactive Weather Map
Tropical Storm Tracking
New forecast layout! Learn more

10-Day Weather Forecast

Advertisements
Track Severe Weather on mobile